Time,TemperatureF,DewpointF,PressureIn,WindDirection,WindDirectionDegrees,WindSpeedMPH,WindSpeedGustMPH,Humidity,HourlyPrecipIn,Conditions,Clouds,dailyrainin,SoftwareType,DateUTC
2013-05-12 00:00:00,60.9,59.2,29.71,SSW,192,0.0,1.0,94,0.00,,,0.00,WeatherCatV1.02B3,2013-05-12 04:00:00,
2013-05-12 00:01:00,60.8,59.1,29.71,SSW,206,0.0,6.0,94,0.00,,,0.00,WeatherCatV1.02B3,2013-05-12 04:01:00,
2013-05-12 00:06:00,60.8,59.1,29.70,SSW,205,0.0,1.0,94,0.00,,,0.00,WeatherCatV1.02B3,2013-05-12 04:06:00,
2013-05-12 00:11:00,60.8,59.1,29.70,South,175,4.0,4.0,94,0.00,,,0.00,WeatherCatV1.02B3,2013-05-12 04:11:00,
2013-05-12 00:16:00,60.8,59.1,29.70,South,185,0.0,2.0,94,0.00,,,0.00,WeatherCatV1.02B3,2013-05-12 04:16:00,
2013-05-12 00:21:00,60.8,59.1,29.70,SW,225,2.0,3.0,94,0.00,,,0.00,WeatherCatV1.02B3,2013-05-12 04:21:00,
2013-05-12 00:26:00,60.7,59.0,29.70,SSW,200,0.0,4.0,94,0.00,,,0.00,WeatherCatV1.02B3,2013-05-12 04:26:00,
2013-05-12 00:31:00,60.7,59.0,29.70,SSW,200,2.0,5.0,94,0.00,,,0.00,WeatherCatV1.02B3,2013-05-12 04:31:00,
2013-05-12 00:36:00,60.6,58.9,29.69,SSW,200,0.0,1.0,94,0.00,,,0.00,WeatherCatV1.02B3,2013-05-12 04:36:00,
2013-05-12 00:41:00,60.6,58.9,29.69,SSW,200,0.0,3.0,94,0.00,,,0.00,WeatherCatV1.02B3,2013-05-12 04:41:00,
2013-05-12 00:46:00,60.6,58.9,29.69,SSW,200,0.0,0.0,94,0.00,,,0.00,WeatherCatV1.02B3,2013-05-12 04:46:00,
2013-05-12 00:51:00,60.6,58.9,29.69,SSW,200,0.0,1.0,94,0.00,,,0.00,WeatherCatV1.02B3,2013-05-12 04:51:00,
2013-05-12 00:56:00,60.5,58.8,29.69,SSE,155,0.0,0.0,94,0.00,,,0.00,WeatherCatV1.02B3,2013-05-12 04:56:00,
2013-05-12 01:01:00,60.5,58.5,29.68,SSE,155,0.0,0.0,93,0.00,,,0.00,WeatherCatV1.02B3,2013-05-12 05:01:00,
2013-05-12 01:06:00,60.5,58.5,29.68,SSE,155,0.0,0.0,93,0.00,,,0.00,WeatherCatV1.02B3,2013-05-12 05:06:00,
2013-05-12 01:11:00,60.4,58.4,29.68,SSE,155,0.0,2.0,93,0.00,,,0.00,WeatherCatV1.02B3,2013-05-12 05:11:00,
2013-05-12 01:16:00,60.4,58.4,29.68,SSE,155,0.0,1.0,93,0.00,,,0.00,WeatherCatV1.02B3,2013-05-12 05:16:00,
2013-05-12 01:21:00,60.3,58.3,29.68,SSW,200,3.0,5.0,93,0.00,,,0.00,WeatherCatV1.02B3,2013-05-12 05:21:00,
2013-05-12 01:26:00,60.3,58.3,29.68,SSW,200,0.0,0.0,93,0.00,,,0.00,WeatherCatV1.02B3,2013-05-12 05:26:00,
2013-05-12 01:31:00,60.2,58.2,29.67,WSW,244,0.0,5.0,93,0.00,,,0.00,WeatherCatV1.02B3,2013-05-12 05:31:00,
2013-05-12 01:36:00,60.2,58.2,29.67,WSW,244,0.0,0.0,93,0.00,,,0.00,WeatherCatV1.02B3,2013-05-12 05:36:00,
2013-05-12 01:41:00,60.2,58.5,29.68,SW,221,0.0,5.0,94,0.00,,,0.00,WeatherCatV1.02B3,2013-05-12 05:41:00,
2013-05-12 01:46:00,60.1,58.4,29.68,SW,221,0.0,1.0,94,0.00,,,0.00,WeatherCatV1.02B3,2013-05-12 05:46:00,
2013-05-12 01:51:00,60.1,58.4,29.68,West,270,4.0,4.0,94,0.00,,,0.00,WeatherCatV1.02B3,2013-05-12 05:51:00,
2013-05-12 01:56:00,60.1,58.4,29.68,West,270,0.0,0.0,94,0.00,,,0.00,WeatherCatV1.02B3,2013-05-12 05:56:00,
2013-05-12 02:00:00,60.1,58.4,29.68,West,270,0.0,0.0,94,0.00,,,0.00,WeatherCatV1.02B3,2013-05-12 06:00:00,
2013-05-12 02:05:00,60.0,58.3,29.68,SW,226,2.0,4.0,94,0.00,,,0.00,WeatherCatV1.02B3,2013-05-12 06:05:00,
2013-05-12 02:10:00,59.9,58.2,29.67,SSW,204,0.0,2.0,94,0.00,,,0.00,WeatherCatV1.02B3,2013-05-12 06:10:00,
2013-05-12 02:15:00,59.9,58.2,29.67,SSW,196,1.0,4.0,94,0.00,,,0.00,WeatherCatV1.02B3,2013-05-12 06:15:00,
2013-05-12 02:20:00,59.9,57.9,29.67,SSW,195,1.0,3.0,93,0.00,,,0.00,WeatherCatV1.02B3,2013-05-12 06:20:00,
2013-05-12 02:25:00,59.8,57.8,29.68,SSW,195,0.0,3.0,93,0.00,,,0.00,WeatherCatV1.02B3,2013-05-12 06:25:00,
2013-05-12 02:30:00,59.8,57.8,29.69,SSW,195,0.0,2.0,93,0.00,,,0.00,WeatherCatV1.02B3,2013-05-12 06:30:00,
2013-05-12 02:35:00,59.8,57.8,29.68,WSW,242,4.0,6.0,93,0.00,,,0.00,WeatherCatV1.02B3,2013-05-12 06:35:00,
2013-05-12 02:40:00,59.7,57.7,29.68,WSW,242,0.0,1.0,93,0.00,,,0.00,WeatherCatV1.02B3,2013-05-12 06:40:00,
2013-05-12 02:45:00,59.7,57.7,29.67,WSW,242,0.0,1.0,93,0.00,,,0.00,WeatherCatV1.02B3,2013-05-12 06:45:00,
2013-05-12 02:50:00,59.6,57.6,29.68,South,182,2.0,7.0,93,0.00,,,0.00,WeatherCatV1.02B3,2013-05-12 06:50:00,
2013-05-12 02:55:00,59.6,57.6,29.68,SW,219,2.0,3.0,93,0.00,,,0.00,WeatherCatV1.02B3,2013-05-12 06:55:00,
2013-05-12 03:00:00,59.6,57.6,29.68,SW,233,4.0,10.0,93,0.00,,,0.00,WeatherCatV1.02B3,2013-05-12 07:00:00,
2013-05-12 03:05:00,59.5,57.5,29.67,SSW,208,3.0,6.0,93,0.00,,,0.00,WeatherCatV1.02B3,2013-05-12 07:05:00,
2013-05-12 03:10:00,59.5,57.8,29.67,SW,221,3.0,3.0,94,0.00,,,0.00,WeatherCatV1.02B3,2013-05-12 07:10:00,
2013-05-12 03:15:00,59.5,57.8,29.67,WSW,247,0.0,0.0,94,0.00,,,0.00,WeatherCatV1.02B3,2013-05-12 07:15:00,
2013-05-12 03:20:00,59.5,57.8,29.66,WSW,247,1.0,1.0,94,0.00,,,0.00,WeatherCatV1.02B3,2013-05-12 07:20:00,
2013-05-12 03:25:00,59.5,57.8,29.66,SW,219,5.0,5.0,94,0.00,,,0.00,WeatherCatV1.02B3,2013-05-12 07:25:00,
2013-05-12 03:30:00,59.4,57.7,29.66,West,278,4.0,6.0,94,0.00,,,0.00,WeatherCatV1.02B3,2013-05-12 07:30:00,
2013-05-12 03:35:00,59.4,57.7,29.66,SSE,148,0.0,0.0,94,0.00,,,0.00,WeatherCatV1.02B3,2013-05-12 07:35:00,
2013-05-12 03:40:00,59.4,57.7,29.66,South,182,0.0,0.0,94,0.00,,,0.00,WeatherCatV1.02B3,2013-05-12 07:40:00,
2013-05-12 03:45:00,59.3,57.6,29.65,South,182,0.0,0.0,94,0.00,,,0.00,WeatherCatV1.02B3,2013-05-12 07:45:00,
2013-05-12 03:50:00,59.3,57.6,29.64,SW,227,3.0,5.0,94,0.00,,,0.00,WeatherCatV1.02B3,2013-05-12 07:50:00,
2013-05-12 03:55:00,59.3,57.6,29.63,SW,227,0.0,0.0,94,0.00,,,0.00,WeatherCatV1.02B3,2013-05-12 07:55:00,
2013-05-12 04:00:00,59.3,57.6,29.63,SW,227,0.0,0.0,94,0.00,,,0.00,WeatherCatV1.02B3,2013-05-12 08:00:00,
2013-05-12 04:05:00,59.2,57.2,29.63,SW,227,0.0,0.0,93,0.00,,,0.00,WeatherCatV1.02B3,2013-05-12 08:05:00,
2013-05-12 04:10:00,59.2,57.5,29.63,SW,227,0.0,0.0,94,0.00,,,0.00,WeatherCatV1.02B3,2013-05-12 08:10:00,
2013-05-12 04:15:00,59.2,57.5,29.64,SW,227,0.0,0.0,94,0.00,,,0.00,WeatherCatV1.02B3,2013-05-12 08:15:00,
2013-05-12 04:20:00,59.2,57.5,29.65,SW,227,1.0,2.0,94,0.00,,,0.00,WeatherCatV1.02B3,2013-05-12 08:20:00,
2013-05-12 04:25:00,59.2,57.5,29.65,SW,227,0.0,3.0,94,0.00,,,0.00,WeatherCatV1.02B3,2013-05-12 08:25:00,
2013-05-12 04:30:00,59.2,57.5,29.65,SW,227,0.0,4.0,94,0.00,,,0.00,WeatherCatV1.02B3,2013-05-12 08:30:00,
2013-05-12 04:35:00,59.2,57.5,29.66,SSW,213,0.0,5.0,94,0.00,,,0.00,WeatherCatV1.02B3,2013-05-12 08:35:00,
2013-05-12 04:40:00,59.2,57.5,29.66,South,181,0.0,3.0,94,0.00,,,0.00,WeatherCatV1.02B3,2013-05-12 08:40:00,
2013-05-12 04:45:00,59.2,57.5,29.66,SSE,147,0.0,1.0,94,0.00,,,0.00,WeatherCatV1.02B3,2013-05-12 08:45:00,
2013-05-12 04:50:00,59.2,57.5,29.66,SSW,201,2.0,4.0,94,0.00,,,0.00,WeatherCatV1.02B3,2013-05-12 08:50:00,
2013-05-12 04:55:00,59.2,57.5,29.65,SW,227,0.0,4.0,94,0.00,,,0.00,WeatherCatV1.02B3,2013-05-12 08:55:00,
2013-05-12 05:00:00,59.2,57.5,29.65,SSW,213,0.0,0.0,94,0.00,,,0.00,WeatherCatV1.02B3,2013-05-12 09:00:00,
2013-05-12 05:05:00,59.2,57.5,29.65,SSW,200,0.0,0.0,94,0.00,,,0.00,WeatherCatV1.02B3,2013-05-12 09:05:00,
2013-05-12 05:10:00,59.2,57.5,29.65,SSW,200,0.0,0.0,94,0.00,,,0.00,WeatherCatV1.02B3,2013-05-12 09:10:00,
2013-05-12 05:15:00,59.2,57.5,29.65,SSW,201,1.0,3.0,94,0.00,,,0.00,WeatherCatV1.02B3,2013-05-12 09:15:00,
2013-05-12 05:20:00,59.2,57.5,29.65,SSW,211,0.0,1.0,94,0.00,,,0.00,WeatherCatV1.02B3,2013-05-12 09:20:00,
2013-05-12 05:25:00,59.2,57.5,29.65,SSW,211,0.0,0.0,94,0.00,,,0.00,WeatherCatV1.02B3,2013-05-12 09:25:00,
2013-05-12 05:28:00,59.3,57.6,29.65,SSW,211,0.0,4.0,94,0.00,,,0.00,WeatherCatV1.02B3,2013-05-12 09:28:00,
2013-05-12 05:33:00,59.3,57.6,29.65,SSW,201,3.0,6.0,94,0.00,,,0.00,WeatherCatV1.02B3,2013-05-12 09:33:00,
2013-05-12 05:38:00,59.3,57.6,29.65,SE,141,0.0,1.0,94,0.00,,,0.00,WeatherCatV1.02B3,2013-05-12 09:38:00,
2013-05-12 05:43:00,59.2,57.5,29.65,South,186,1.0,4.0,94,0.00,,,0.00,WeatherCatV1.02B3,2013-05-12 09:43:00,
2013-05-12 05:48:00,59.3,57.6,29.65,SSW,200,0.0,0.0,94,0.00,,,0.00,WeatherCatV1.02B3,2013-05-12 09:48:00,
2013-05-12 05:53:00,59.3,57.6,29.65,SW,215,0.0,1.0,94,0.00,,,0.00,WeatherCatV1.02B3,2013-05-12 09:53:00,
2013-05-12 05:58:00,59.2,57.5,29.66,SSW,211,1.0,6.0,94,0.00,,,0.00,WeatherCatV1.02B3,2013-05-12 09:58:00,
2013-05-12 06:04:00,59.2,57.5,29.66,South,188,2.0,2.0,94,0.00,,,0.00,WeatherCatV1.02B3,2013-05-12 10:04:00,
2013-05-12 06:09:00,59.2,57.5,29.66,South,188,0.0,3.0,94,0.00,,,0.00,WeatherCatV1.02B3,2013-05-12 10:09:00,
2013-05-12 06:14:00,59.3,57.6,29.66,South,188,0.0,2.0,94,0.00,,,0.00,WeatherCatV1.02B3,2013-05-12 10:14:00,
2013-05-12 06:19:00,59.3,57.6,29.66,South,188,0.0,0.0,94,0.00,,,0.00,WeatherCatV1.02B3,2013-05-12 10:19:00,
2013-05-12 06:24:00,59.3,57.6,29.66,SW,219,0.0,0.0,94,0.00,,,0.00,WeatherCatV1.02B3,2013-05-12 10:24:00,
2013-05-12 06:29:00,59.3,57.6,29.65,SSW,212,0.0,1.0,94,0.00,,,0.00,WeatherCatV1.02B3,2013-05-12 10:29:00,
2013-05-12 06:34:00,59.3,57.6,29.65,SSW,212,0.0,4.0,94,0.00,,,0.00,WeatherCatV1.02B3,2013-05-12 10:34:00,
2013-05-12 06:39:00,59.4,57.7,29.66,SSW,212,0.0,0.0,94,0.00,,,0.00,WeatherCatV1.02B3,2013-05-12 10:39:00,
2013-05-12 06:44:00,59.4,57.7,29.65,SSW,212,0.0,0.0,94,0.00,,,0.00,WeatherCatV1.02B3,2013-05-12 10:44:00,
2013-05-12 06:49:00,59.4,57.7,29.65,SSW,212,0.0,0.0,94,0.00,,,0.01,WeatherCatV1.02B3,2013-05-12 10:49:00,
2013-05-12 06:54:00,59.4,57.7,29.65,SSW,212,0.0,0.0,94,0.00,,,0.01,WeatherCatV1.02B3,2013-05-12 10:54:00,
2013-05-12 06:59:00,59.5,57.8,29.65,SSW,212,0.0,0.0,94,0.00,,,0.01,WeatherCatV1.02B3,2013-05-12 10:59:00,
2013-05-12 07:04:00,59.5,57.8,29.65,SSW,212,0.0,0.0,94,0.00,,,0.01,WeatherCatV1.02B3,2013-05-12 11:04:00,
2013-05-12 07:09:00,59.5,57.8,29.65,SSW,211,0.0,0.0,94,0.00,,,0.01,WeatherCatV1.02B3,2013-05-12 11:09:00,
2013-05-12 07:14:00,59.5,57.8,29.65,SSW,211,0.0,3.0,94,0.00,,,0.01,WeatherCatV1.02B3,2013-05-12 11:14:00,
2013-05-12 07:19:00,59.5,57.8,29.65,SSW,211,0.0,1.0,94,0.00,,,0.01,WeatherCatV1.02B3,2013-05-12 11:19:00,
2013-05-12 07:24:00,59.6,57.9,29.65,SSW,211,2.0,3.0,94,0.00,,,0.01,WeatherCatV1.02B3,2013-05-12 11:24:00,
2013-05-12 07:29:00,59.6,57.9,29.65,SSW,211,0.0,3.0,94,0.00,,,0.01,WeatherCatV1.02B3,2013-05-12 11:29:00,
2013-05-12 07:34:00,59.6,57.9,29.65,SSW,211,4.0,4.0,94,0.00,,,0.01,WeatherCatV1.02B3,2013-05-12 11:34:00,
2013-05-12 07:39:00,59.6,57.9,29.65,SSW,211,0.0,3.0,94,0.00,,,0.01,WeatherCatV1.02B3,2013-05-12 11:39:00,
2013-05-12 07:44:00,59.6,57.9,29.65,SSW,211,0.0,1.0,94,0.00,,,0.01,WeatherCatV1.02B3,2013-05-12 11:44:00,
2013-05-12 07:49:00,59.6,57.9,29.65,SSW,211,0.0,0.0,94,0.00,,,0.02,WeatherCatV1.02B3,2013-05-12 11:49:00,
2013-05-12 07:54:00,59.6,57.9,29.65,SSW,193,0.0,4.0,94,0.00,,,0.02,WeatherCatV1.02B3,2013-05-12 11:54:00,
2013-05-12 07:59:00,59.7,58.0,29.65,WSW,239,3.0,5.0,94,0.07,,,0.03,WeatherCatV1.02B3,2013-05-12 11:59:00,
2013-05-12 08:04:00,59.7,58.0,29.64,SSW,196,2.0,3.0,94,0.06,,,0.03,WeatherCatV1.02B3,2013-05-12 12:04:00,
2013-05-12 08:09:00,59.8,58.1,29.64,SSW,202,0.0,3.0,94,0.04,,,0.03,WeatherCatV1.02B3,2013-05-12 12:09:00,
2013-05-12 08:14:00,59.8,58.1,29.64,SSW,200,0.0,5.0,94,0.00,,,0.03,WeatherCatV1.02B3,2013-05-12 12:14:00,
2013-05-12 08:19:00,59.8,58.1,29.65,SW,223,0.0,2.0,94,0.19,,,0.05,WeatherCatV1.02B3,2013-05-12 12:19:00,
2013-05-12 08:24:00,59.8,58.1,29.64,South,182,0.0,4.0,94,0.10,,,0.06,WeatherCatV1.02B3,2013-05-12 12:24:00,
2013-05-12 08:29:00,59.8,58.1,29.64,South,190,0.0,4.0,94,0.10,,,0.06,WeatherCatV1.02B3,2013-05-12 12:29:00,
2013-05-12 08:34:00,59.9,58.2,29.64,South,169,0.0,4.0,94,0.10,,,0.07,WeatherCatV1.02B3,2013-05-12 12:34:00,
2013-05-12 08:39:00,59.9,58.2,29.63,South,184,0.0,2.0,94,0.06,,,0.07,WeatherCatV1.02B3,2013-05-12 12:39:00,
2013-05-12 08:44:00,60.0,58.3,29.63,SSW,202,0.0,3.0,94,0.04,,,0.07,WeatherCatV1.02B3,2013-05-12 12:44:00,
2013-05-12 08:49:00,60.1,58.4,29.63,SSW,202,0.0,0.0,94,0.00,,,0.07,WeatherCatV1.02B3,2013-05-12 12:49:00,
2013-05-12 09:03:00,59.1,57.4,29.64,West,279,4.0,4.0,94,0.00,,,0.07,WeatherCatV1.02B3,2013-05-12 13:03:00,
2013-05-12 09:08:00,57.9,55.9,29.64,WNW,290,4.0,5.0,93,0.00,,,0.07,WeatherCatV1.02B3,2013-05-12 13:08:00,
2013-05-12 09:13:00,57.2,55.2,29.64,WNW,289,0.0,4.0,93,0.00,,,0.07,WeatherCatV1.02B3,2013-05-12 13:13:00,
2013-05-12 09:18:00,56.8,54.8,29.64,WNW,292,4.0,5.0,93,0.00,,,0.07,WeatherCatV1.02B3,2013-05-12 13:18:00,
2013-05-12 09:23:00,56.6,54.6,29.64,WNW,292,0.0,5.0,93,0.00,,,0.07,WeatherCatV1.02B3,2013-05-12 13:23:00,
2013-05-12 09:28:00,56.5,54.5,29.64,WNW,291,0.0,2.0,93,0.16,,,0.09,WeatherCatV1.02B3,2013-05-12 13:28:00,
2013-05-12 09:33:00,56.5,54.8,29.64,WNW,291,0.0,4.0,94,0.19,,,0.10,WeatherCatV1.02B3,2013-05-12 13:33:00,
2013-05-12 09:38:00,56.4,54.7,29.64,WNW,291,2.0,3.0,94,0.17,,,0.11,WeatherCatV1.02B3,2013-05-12 13:38:00,
2013-05-12 09:43:00,56.4,54.7,29.65,West,267,0.0,3.0,94,0.07,,,0.11,WeatherCatV1.02B3,2013-05-12 13:43:00,
2013-05-12 09:48:00,56.5,54.8,29.64,West,267,0.0,0.0,94,0.06,,,0.12,WeatherCatV1.02B3,2013-05-12 13:48:00,
2013-05-12 09:53:00,56.7,55.0,29.63,West,267,0.0,1.0,94,0.06,,,0.12,WeatherCatV1.02B3,2013-05-12 13:53:00,
2013-05-12 09:58:00,56.9,55.2,29.63,West,267,0.0,0.0,94,0.05,,,0.12,WeatherCatV1.02B3,2013-05-12 13:58:00,
2013-05-12 10:03:00,57.1,55.4,29.64,West,267,0.0,0.0,94,0.00,,,0.12,WeatherCatV1.02B3,2013-05-12 14:03:00,
2013-05-12 10:08:00,57.2,55.5,29.63,West,267,0.0,0.0,94,0.00,,,0.12,WeatherCatV1.02B3,2013-05-12 14:08:00,
2013-05-12 10:13:00,57.3,55.6,29.63,West,270,0.0,2.0,94,0.00,,,0.12,WeatherCatV1.02B3,2013-05-12 14:13:00,
2013-05-12 10:18:00,57.5,55.8,29.63,West,270,0.0,1.0,94,0.00,,,0.12,WeatherCatV1.02B3,2013-05-12 14:18:00,
2013-05-12 10:23:00,57.7,56.0,29.63,West,270,0.0,1.0,94,0.00,,,0.12,WeatherCatV1.02B3,2013-05-12 14:23:00,
2013-05-12 10:28:00,57.7,56.0,29.63,West,270,0.0,0.0,94,0.00,,,0.12,WeatherCatV1.02B3,2013-05-12 14:28:00,
2013-05-12 10:35:00,57.8,56.1,29.63,West,270,0.0,0.0,94,0.00,,,0.12,WeatherCatV1.02B3,2013-05-12 14:35:00,
2013-05-12 10:40:00,58.2,56.5,29.63,West,270,2.0,4.0,94,0.00,,,0.13,WeatherCatV1.02B3,2013-05-12 14:40:00,
2013-05-12 10:45:00,58.6,56.9,29.63,West,271,0.0,3.0,94,0.00,,,0.13,WeatherCatV1.02B3,2013-05-12 14:45:00,
2013-05-12 10:50:00,58.8,56.8,29.63,WNW,291,1.0,4.0,93,0.00,,,0.13,WeatherCatV1.02B3,2013-05-12 14:50:00,
2013-05-12 10:55:00,58.9,56.6,29.63,WSW,257,1.0,8.0,92,0.00,,,0.13,WeatherCatV1.02B3,2013-05-12 14:55:00,
2013-05-12 11:00:00,58.6,56.3,29.63,WSW,258,3.0,4.0,92,0.00,,,0.13,WeatherCatV1.02B3,2013-05-12 15:00:00,
2013-05-12 11:05:00,59.0,57.0,29.62,WNW,284,0.0,5.0,93,0.00,,,0.13,WeatherCatV1.02B3,2013-05-12 15:05:00,
2013-05-12 11:10:00,59.4,56.8,29.62,West,277,0.0,5.0,91,0.00,,,0.13,WeatherCatV1.02B3,2013-05-12 15:10:00,
2013-05-12 11:15:00,59.6,57.3,29.62,West,278,0.0,5.0,92,0.00,,,0.13,WeatherCatV1.02B3,2013-05-12 15:15:00,
2013-05-12 11:20:00,59.4,55.8,29.62,West,280,5.0,7.0,88,0.00,,,0.13,WeatherCatV1.02B3,2013-05-12 15:20:00,
2013-05-12 11:25:00,59.3,55.7,29.62,WNW,289,4.0,7.0,88,0.00,,,0.13,WeatherCatV1.02B3,2013-05-12 15:25:00,
2013-05-12 11:30:00,59.2,55.6,29.63,WNW,287,6.0,8.0,88,0.00,,,0.13,WeatherCatV1.02B3,2013-05-12 15:30:00,
2013-05-12 11:35:00,59.0,55.4,29.62,West,280,1.0,1.0,88,0.00,,,0.13,WeatherCatV1.02B3,2013-05-12 15:35:00,
2013-05-12 11:40:00,58.9,55.0,29.62,West,280,0.0,3.0,87,0.00,,,0.13,WeatherCatV1.02B3,2013-05-12 15:40:00,
2013-05-12 11:45:00,58.9,55.0,29.62,West,280,2.0,4.0,87,0.00,,,0.13,WeatherCatV1.02B3,2013-05-12 15:45:00,
2013-05-12 11:50:00,59.1,55.5,29.62,West,280,3.0,3.0,88,0.00,,,0.13,WeatherCatV1.02B3,2013-05-12 15:50:00,
2013-05-12 11:55:00,59.4,55.5,29.62,West,280,4.0,4.0,87,0.00,,,0.13,WeatherCatV1.02B3,2013-05-12 15:55:00,
2013-05-12 12:00:00,60.0,56.1,29.62,West,281,4.0,6.0,87,0.00,,,0.13,WeatherCatV1.02B3,2013-05-12 16:00:00,
2013-05-12 12:05:00,60.4,56.8,29.62,West,281,4.0,5.0,88,0.00,,,0.13,WeatherCatV1.02B3,2013-05-12 16:05:00,
2013-05-12 12:09:00,60.9,56.7,29.62,West,281,0.0,0.0,86,0.00,,,0.13,WeatherCatV1.02B3,2013-05-12 16:09:00,
2013-05-12 12:14:00,61.5,56.6,29.62,SSW,192,3.0,4.0,84,0.00,,,0.13,WeatherCatV1.02B3,2013-05-12 16:14:00,
2013-05-12 12:19:00,62.4,57.8,29.61,WNW,303,5.0,5.0,85,0.00,,,0.13,WeatherCatV1.02B3,2013-05-12 16:19:00,
2013-05-12 12:24:00,63.1,57.5,29.61,WNW,296,0.0,5.0,82,0.00,,,0.13,WeatherCatV1.02B3,2013-05-12 16:24:00,
2013-05-12 12:29:00,63.8,56.8,29.61,SW,232,3.0,6.0,78,0.00,,,0.13,WeatherCatV1.02B3,2013-05-12 16:29:00,
2013-05-12 12:34:00,63.7,56.0,29.61,SW,225,5.0,5.0,76,0.00,,,0.13,WeatherCatV1.02B3,2013-05-12 16:34:00,
2013-05-12 12:39:00,63.8,56.4,29.61,SW,228,2.0,4.0,77,0.00,,,0.13,WeatherCatV1.02B3,2013-05-12 16:39:00,
2013-05-12 12:44:00,64.1,56.7,29.61,SSW,209,5.0,8.0,77,0.00,,,0.13,WeatherCatV1.02B3,2013-05-12 16:44:00,
2013-05-12 12:49:00,64.3,55.8,29.61,SW,232,3.0,5.0,74,0.00,,,0.13,WeatherCatV1.02B3,2013-05-12 16:49:00,
2013-05-12 12:54:00,64.2,55.7,29.62,WSW,248,2.0,8.0,74,0.00,,,0.13,WeatherCatV1.02B3,2013-05-12 16:54:00,
2013-05-12 12:59:00,64.5,55.6,29.62,West,262,3.0,7.0,73,0.00,,,0.13,WeatherCatV1.02B3,2013-05-12 16:59:00,
2013-05-12 13:04:00,65.3,54.9,29.61,WSW,246,0.0,6.0,69,0.00,,,0.13,WeatherCatV1.02B3,2013-05-12 17:04:00,
2013-05-12 13:09:00,65.9,53.8,29.61,SW,234,8.0,11.0,65,0.00,,,0.13,WeatherCatV1.02B3,2013-05-12 17:09:00,
2013-05-12 13:14:00,66.3,53.3,29.61,NW,320,4.0,9.0,63,0.00,,,0.13,WeatherCatV1.02B3,2013-05-12 17:14:00,
2013-05-12 13:19:00,66.7,55.4,29.61,SW,219,6.0,7.0,67,0.00,,,0.13,WeatherCatV1.02B3,2013-05-12 17:19:00,
2013-05-12 13:24:00,67.2,53.3,29.60,SW,214,5.0,9.0,61,0.00,,,0.13,WeatherCatV1.02B3,2013-05-12 17:24:00,
2013-05-12 13:29:00,67.0,53.5,29.61,SW,234,4.0,9.0,62,0.00,,,0.13,WeatherCatV1.02B3,2013-05-12 17:29:00,
2013-05-12 13:34:00,66.8,52.9,29.61,West,267,8.0,13.0,61,0.00,,,0.13,WeatherCatV1.02B3,2013-05-12 17:34:00,
2013-05-12 13:39:00,67.1,52.3,29.61,WNW,302,4.0,10.0,59,0.00,,,0.13,WeatherCatV1.02B3,2013-05-12 17:39:00,
2013-05-12 13:44:00,67.5,53.1,29.60,WSW,258,3.0,5.0,60,0.00,,,0.13,WeatherCatV1.02B3,2013-05-12 17:44:00,
2013-05-12 13:49:00,66.9,52.1,29.60,WNW,288,3.0,10.0,59,0.00,,,0.13,WeatherCatV1.02B3,2013-05-12 17:49:00,
2013-05-12 13:54:00,66.6,51.8,29.60,WSW,254,2.0,6.0,59,0.00,,,0.13,WeatherCatV1.02B3,2013-05-12 17:54:00,
2013-05-12 13:59:00,66.8,52.9,29.60,WNW,284,6.0,6.0,61,0.00,,,0.13,WeatherCatV1.02B3,2013-05-12 17:59:00,
2013-05-12 14:04:00,67.5,52.2,29.59,West,281,5.0,10.0,58,0.00,,,0.13,WeatherCatV1.02B3,2013-05-12 18:04:00,
2013-05-12 14:09:00,67.7,52.4,29.59,SSW,193,7.0,7.0,58,0.00,,,0.13,WeatherCatV1.02B3,2013-05-12 18:09:00,
2013-05-12 14:14:00,67.6,51.3,29.59,WSW,246,3.0,9.0,56,0.00,,,0.13,WeatherCatV1.02B3,2013-05-12 18:14:00,
2013-05-12 14:19:00,67.3,51.1,29.59,WNW,292,5.0,11.0,56,0.00,,,0.13,WeatherCatV1.02B3,2013-05-12 18:19:00,
2013-05-12 14:24:00,67.6,51.8,29.59,WSW,246,3.0,6.0,57,0.00,,,0.13,WeatherCatV1.02B3,2013-05-12 18:24:00,
2013-05-12 14:29:00,68.0,51.7,29.59,SW,225,3.0,6.0,56,0.00,,,0.13,WeatherCatV1.02B3,2013-05-12 18:29:00,
2013-05-12 14:34:00,68.4,51.6,29.59,SW,231,3.0,10.0,55,0.00,,,0.13,WeatherCatV1.02B3,2013-05-12 18:34:00,
2013-05-12 14:39:00,68.5,51.7,29.58,WSW,247,12.0,12.0,55,0.00,,,0.13,WeatherCatV1.02B3,2013-05-12 18:39:00,
2013-05-12 14:44:00,67.7,51.4,29.59,SW,234,12.0,12.0,56,0.00,,,0.13,WeatherCatV1.02B3,2013-05-12 18:44:00,
2013-05-12 14:49:00,67.8,51.5,29.58,SW,229,0.0,9.0,56,0.00,,,0.13,WeatherCatV1.02B3,2013-05-12 18:49:00,
2013-05-12 14:54:00,67.7,50.4,29.58,West,269,9.0,11.0,54,0.00,,,0.13,WeatherCatV1.02B3,2013-05-12 18:54:00,
2013-05-12 14:59:00,67.4,51.6,29.58,SW,236,3.0,9.0,57,0.00,,,0.13,WeatherCatV1.02B3,2013-05-12 18:59:00,
2013-05-12 15:04:00,67.8,50.5,29.58,West,281,4.0,11.0,54,0.00,,,0.13,WeatherCatV1.02B3,2013-05-12 19:04:00,
2013-05-12 15:09:00,68.3,51.0,29.58,WSW,240,5.0,13.0,54,0.00,,,0.13,WeatherCatV1.02B3,2013-05-12 19:09:00,
2013-05-12 15:14:00,68.6,51.3,29.58,West,277,4.0,9.0,54,0.00,,,0.13,WeatherCatV1.02B3,2013-05-12 19:14:00,
2013-05-12 15:19:00,68.9,50.5,29.58,WNW,301,2.0,8.0,52,0.00,,,0.13,WeatherCatV1.02B3,2013-05-12 19:19:00,
2013-05-12 15:24:00,69.1,51.2,29.58,SSW,209,5.0,14.0,53,0.00,,,0.13,WeatherCatV1.02B3,2013-05-12 19:24:00,
2013-05-12 15:29:00,69.1,51.2,29.58,SW,219,8.0,13.0,53,0.00,,,0.13,WeatherCatV1.02B3,2013-05-12 19:29:00,
2013-05-12 15:34:00,69.0,51.1,29.58,SSW,202,4.0,5.0,53,0.00,,,0.13,WeatherCatV1.02B3,2013-05-12 19:34:00,
2013-05-12 15:39:00,69.3,49.8,29.58,West,260,9.0,10.0,50,0.00,,,0.13,WeatherCatV1.02B3,2013-05-12 19:39:00,
2013-05-12 15:44:00,69.0,49.0,29.58,WNW,294,12.0,17.0,49,0.00,,,0.13,WeatherCatV1.02B3,2013-05-12 19:44:00,
2013-05-12 15:49:00,68.9,49.5,29.58,SE,146,2.0,9.0,50,0.00,,,0.13,WeatherCatV1.02B3,2013-05-12 19:49:00,
2013-05-12 15:54:00,69.0,49.6,29.58,WSW,246,0.0,7.0,50,0.00,,,0.13,WeatherCatV1.02B3,2013-05-12 19:54:00,
2013-05-12 15:59:00,69.0,47.9,29.57,WSW,244,12.0,13.0,47,0.00,,,0.13,WeatherCatV1.02B3,2013-05-12 19:59:00,
2013-05-12 16:04:00,68.9,47.3,29.58,SSW,205,13.0,15.0,46,0.00,,,0.13,WeatherCatV1.02B3,2013-05-12 20:04:00,
2013-05-12 16:09:00,69.0,47.3,29.58,WSW,257,3.0,16.0,46,0.00,,,0.13,WeatherCatV1.02B3,2013-05-12 20:09:00,
2013-05-12 16:14:00,68.5,46.9,29.58,West,270,6.0,15.0,46,0.00,,,0.13,WeatherCatV1.02B3,2013-05-12 20:14:00,
2013-05-12 16:19:00,67.4,48.6,29.59,WNW,291,6.0,16.0,51,0.00,,,0.13,WeatherCatV1.02B3,2013-05-12 20:19:00,
2013-05-12 16:24:00,66.2,49.5,29.59,WNW,300,12.0,13.0,55,0.00,,,0.13,WeatherCatV1.02B3,2013-05-12 20:24:00,
2013-05-12 16:29:00,65.5,49.4,29.60,West,281,10.0,14.0,56,0.00,,,0.13,WeatherCatV1.02B3,2013-05-12 20:29:00,
2013-05-12 16:34:00,65.2,50.0,29.61,WNW,282,9.0,17.0,58,0.00,,,0.13,WeatherCatV1.02B3,2013-05-12 20:34:00,
2013-05-12 16:39:00,65.0,50.3,29.61,NW,315,12.0,14.0,59,0.00,,,0.13,WeatherCatV1.02B3,2013-05-12 20:39:00,
2013-05-12 16:44:00,65.0,49.9,29.61,SW,219,8.0,14.0,58,0.00,,,0.13,WeatherCatV1.02B3,2013-05-12 20:44:00,
2013-05-12 16:49:00,64.8,49.2,29.62,SW,232,13.0,18.0,57,0.00,,,0.13,WeatherCatV1.02B3,2013-05-12 20:49:00,
2013-05-12 16:54:00,63.7,48.6,29.62,WNW,295,13.0,22.0,58,0.00,,,0.13,WeatherCatV1.02B3,2013-05-12 20:54:00,
2013-05-12 16:59:00,63.1,49.0,29.63,West,265,12.0,12.0,60,0.00,,,0.13,WeatherCatV1.02B3,2013-05-12 20:59:00,
2013-05-12 17:05:00,62.5,47.5,29.63,WSW,246,7.0,14.0,58,0.00,,,0.13,WeatherCatV1.02B3,2013-05-12 21:05:00,
2013-05-12 17:10:00,62.0,46.6,29.63,NW,310,2.0,12.0,57,0.00,,,0.13,WeatherCatV1.02B3,2013-05-12 21:10:00,
2013-05-12 17:15:00,61.8,45.9,29.63,WNW,297,10.0,17.0,56,0.00,,,0.13,WeatherCatV1.02B3,2013-05-12 21:15:00,
2013-05-12 17:20:00,61.4,46.0,29.63,NNW,327,7.0,19.0,57,0.00,,,0.13,WeatherCatV1.02B3,2013-05-12 21:20:00,
2013-05-12 17:27:00,61.0,45.2,29.64,WNW,287,6.0,6.0,56,0.00,,,0.13,WeatherCatV1.02B3,2013-05-12 21:27:00,
2013-05-12 17:32:00,60.9,45.1,29.64,WSW,254,4.0,14.0,56,0.00,,,0.13,WeatherCatV1.02B3,2013-05-12 21:32:00,
2013-05-12 17:37:00,60.8,43.6,29.64,NW,322,7.0,18.0,53,0.00,,,0.13,WeatherCatV1.02B3,2013-05-12 21:37:00,
2013-05-12 17:42:00,60.1,43.4,29.65,West,259,8.0,15.0,54,0.00,,,0.13,WeatherCatV1.02B3,2013-05-12 21:42:00,
2013-05-12 17:47:00,59.6,43.4,29.65,West,279,4.0,6.0,55,0.00,,,0.13,WeatherCatV1.02B3,2013-05-12 21:47:00,
2013-05-12 17:52:00,59.6,42.9,29.65,West,273,1.0,12.0,54,0.00,,,0.13,WeatherCatV1.02B3,2013-05-12 21:52:00,
2013-05-12 17:57:00,59.3,42.7,29.65,West,277,5.0,9.0,54,0.00,,,0.13,WeatherCatV1.02B3,2013-05-12 21:57:00,
2013-05-12 18:02:00,59.0,42.9,29.65,WNW,292,7.0,9.0,55,0.00,,,0.13,WeatherCatV1.02B3,2013-05-12 22:02:00,
2013-05-12 18:07:00,58.9,42.8,29.66,West,277,15.0,15.0,55,0.00,,,0.13,WeatherCatV1.02B3,2013-05-12 22:07:00,
2013-05-12 18:12:00,58.7,42.6,29.66,NW,317,5.0,14.0,55,0.00,,,0.13,WeatherCatV1.02B3,2013-05-12 22:12:00,
2013-05-12 18:17:00,58.7,42.1,29.66,WSW,257,4.0,10.0,54,0.00,,,0.13,WeatherCatV1.02B3,2013-05-12 22:17:00,
2013-05-12 18:22:00,58.9,42.3,29.66,West,265,0.0,6.0,54,0.00,,,0.13,WeatherCatV1.02B3,2013-05-12 22:22:00,
2013-05-12 18:27:00,58.9,42.8,29.67,West,281,7.0,8.0,55,0.00,,,0.13,WeatherCatV1.02B3,2013-05-12 22:27:00,
2013-05-12 18:32:00,58.8,41.2,29.67,WNW,298,5.0,14.0,52,0.00,,,0.13,WeatherCatV1.02B3,2013-05-12 22:32:00,
2013-05-12 18:37:00,58.4,40.3,29.67,West,262,4.0,12.0,51,0.00,,,0.13,WeatherCatV1.02B3,2013-05-12 22:37:00,
2013-05-12 18:42:00,58.0,41.0,29.68,NW,313,7.0,9.0,53,0.00,,,0.13,WeatherCatV1.02B3,2013-05-12 22:42:00,
2013-05-12 18:47:00,57.7,40.7,29.68,WSW,249,4.0,10.0,53,0.00,,,0.13,WeatherCatV1.02B3,2013-05-12 22:47:00,
2013-05-12 18:52:00,57.5,40.5,29.69,West,277,13.0,13.0,53,0.00,,,0.13,WeatherCatV1.02B3,2013-05-12 22:52:00,
2013-05-12 18:57:00,57.5,39.5,29.69,NW,315,4.0,16.0,51,0.00,,,0.13,WeatherCatV1.02B3,2013-05-12 22:57:00,
2013-05-12 19:02:00,57.6,39.6,29.70,WNW,288,11.0,15.0,51,0.00,,,0.13,WeatherCatV1.02B3,2013-05-12 23:02:00,
2013-05-12 19:07:00,57.5,39.0,29.70,WNW,288,6.0,14.0,50,0.00,,,0.13,WeatherCatV1.02B3,2013-05-12 23:07:00,
2013-05-12 19:12:00,57.3,38.3,29.70,West,277,7.0,16.0,49,0.00,,,0.13,WeatherCatV1.02B3,2013-05-12 23:12:00,
2013-05-12 19:17:00,57.0,37.5,29.70,West,279,7.0,16.0,48,0.00,,,0.13,WeatherCatV1.02B3,2013-05-12 23:17:00,
2013-05-12 19:22:00,56.9,37.4,29.71,WNW,288,0.0,8.0,48,0.00,,,0.13,WeatherCatV1.02B3,2013-05-12 23:22:00,
2013-05-12 19:27:00,56.7,37.8,29.71,West,280,4.0,6.0,49,0.00,,,0.13,WeatherCatV1.02B3,2013-05-12 23:27:00,
2013-05-12 19:32:00,56.4,37.5,29.71,WSW,250,3.0,3.0,49,0.00,,,0.13,WeatherCatV1.02B3,2013-05-12 23:32:00,
2013-05-12 19:37:00,56.3,36.9,29.71,WSW,254,4.0,12.0,48,0.00,,,0.13,WeatherCatV1.02B3,2013-05-12 23:37:00,
2013-05-12 19:42:00,56.2,36.8,29.72,West,281,0.0,10.0,48,0.00,,,0.13,WeatherCatV1.02B3,2013-05-12 23:42:00,
2013-05-12 19:47:00,55.9,37.0,29.72,WSW,255,5.0,5.0,49,0.00,,,0.13,WeatherCatV1.02B3,2013-05-12 23:47:00,
2013-05-12 19:52:00,55.7,36.3,29.72,NW,308,2.0,5.0,48,0.00,,,0.13,WeatherCatV1.02B3,2013-05-12 23:52:00,
2013-05-12 19:57:00,55.3,36.5,29.73,West,263,6.0,8.0,49,0.00,,,0.13,WeatherCatV1.02B3,2013-05-12 23:57:00,
2013-05-12 20:02:00,55.1,35.2,29.73,NNW,342,3.0,8.0,47,0.00,,,0.13,WeatherCatV1.02B3,2013-05-13 00:02:00,
2013-05-12 20:07:00,55.0,34.1,29.73,WNW,284,5.0,12.0,45,0.00,,,0.13,WeatherCatV1.02B3,2013-05-13 00:07:00,
2013-05-12 20:12:00,54.9,34.5,29.73,West,279,7.0,7.0,46,0.00,,,0.13,WeatherCatV1.02B3,2013-05-13 00:12:00,
2013-05-12 20:17:00,54.7,33.8,29.73,WNW,292,2.0,5.0,45,0.00,,,0.13,WeatherCatV1.02B3,2013-05-13 00:17:00,
2013-05-12 20:22:00,54.4,33.5,29.74,WNW,294,6.0,9.0,45,0.00,,,0.13,WeatherCatV1.02B3,2013-05-13 00:22:00,
2013-05-12 20:27:00,54.2,33.9,29.74,WNW,298,9.0,9.0,46,0.00,,,0.13,WeatherCatV1.02B3,2013-05-13 00:27:00,
2013-05-12 20:32:00,54.1,33.8,29.74,West,277,6.0,10.0,46,0.00,,,0.13,WeatherCatV1.02B3,2013-05-13 00:32:00,
2013-05-12 20:37:00,53.9,33.6,29.74,WNW,282,5.0,5.0,46,0.00,,,0.13,WeatherCatV1.02B3,2013-05-13 00:37:00,
2013-05-12 20:42:00,53.7,33.4,29.74,WSW,256,0.0,8.0,46,0.00,,,0.13,WeatherCatV1.02B3,2013-05-13 00:42:00,
2013-05-12 20:47:00,53.6,33.3,29.74,West,275,6.0,8.0,46,0.00,,,0.13,WeatherCatV1.02B3,2013-05-13 00:47:00,
2013-05-12 20:52:00,53.4,33.7,29.74,West,273,1.0,6.0,47,0.00,,,0.13,WeatherCatV1.02B3,2013-05-13 00:52:00,
2013-05-12 20:57:00,53.1,33.4,29.75,West,271,2.0,3.0,47,0.00,,,0.13,WeatherCatV1.02B3,2013-05-13 00:57:00,
2013-05-12 21:02:00,52.9,33.2,29.75,West,271,0.0,4.0,47,0.00,,,0.13,WeatherCatV1.02B3,2013-05-13 01:02:00,
2013-05-12 21:07:00,52.6,34.0,29.75,West,271,2.0,2.0,49,0.00,,,0.13,WeatherCatV1.02B3,2013-05-13 01:07:00,
2013-05-12 21:12:00,52.2,34.1,29.76,West,271,0.0,2.0,50,0.00,,,0.13,WeatherCatV1.02B3,2013-05-13 01:12:00,
2013-05-12 21:17:00,51.9,33.8,29.76,West,271,0.0,4.0,50,0.00,,,0.13,WeatherCatV1.02B3,2013-05-13 01:17:00,
2013-05-12 21:22:00,51.6,33.6,29.76,West,271,0.0,3.0,50,0.00,,,0.13,WeatherCatV1.02B3,2013-05-13 01:22:00,
2013-05-12 21:27:00,51.3,34.8,29.76,West,271,0.0,0.0,53,0.00,,,0.13,WeatherCatV1.02B3,2013-05-13 01:27:00,
2013-05-12 21:32:00,50.9,34.4,29.76,West,271,0.0,0.0,53,0.00,,,0.13,WeatherCatV1.02B3,2013-05-13 01:32:00,
2013-05-12 21:37:00,50.4,34.4,29.76,West,271,0.0,1.0,54,0.00,,,0.13,WeatherCatV1.02B3,2013-05-13 01:37:00,
2013-05-12 21:42:00,50.0,34.5,29.76,West,271,2.0,2.0,55,0.00,,,0.13,WeatherCatV1.02B3,2013-05-13 01:42:00,
2013-05-12 21:47:00,49.6,34.6,29.76,West,271,0.0,2.0,56,0.00,,,0.13,WeatherCatV1.02B3,2013-05-13 01:47:00,
2013-05-12 21:52:00,49.4,34.4,29.77,West,271,4.0,4.0,56,0.00,,,0.13,WeatherCatV1.02B3,2013-05-13 01:52:00,
2013-05-12 21:57:00,49.5,34.0,29.77,West,271,3.0,6.0,55,0.00,,,0.13,WeatherCatV1.02B3,2013-05-13 01:57:00,
2013-05-12 22:02:00,49.8,33.4,29.77,WNW,285,7.0,9.0,53,0.00,,,0.13,WeatherCatV1.02B3,2013-05-13 02:02:00,
2013-05-12 22:07:00,50.1,33.2,29.78,West,261,6.0,11.0,52,0.00,,,0.13,WeatherCatV1.02B3,2013-05-13 02:07:00,
2013-05-12 22:12:00,50.4,33.0,29.78,WNW,290,5.0,8.0,51,0.00,,,0.13,WeatherCatV1.02B3,2013-05-13 02:12:00,
2013-05-12 22:17:00,50.6,32.2,29.78,WNW,285,8.0,9.0,49,0.00,,,0.13,WeatherCatV1.02B3,2013-05-13 02:17:00,
2013-05-12 22:22:00,50.8,32.3,29.79,West,274,2.0,6.0,49,0.00,,,0.13,WeatherCatV1.02B3,2013-05-13 02:22:00,
2013-05-12 22:27:00,50.9,31.9,29.79,West,273,3.0,5.0,48,0.00,,,0.13,WeatherCatV1.02B3,2013-05-13 02:27:00,
2013-05-12 22:32:00,51.0,32.5,29.80,WNW,299,9.0,9.0,49,0.00,,,0.13,WeatherCatV1.02B3,2013-05-13 02:32:00,
2013-05-12 22:37:00,50.8,32.3,29.80,NW,307,2.0,5.0,49,0.00,,,0.13,WeatherCatV1.02B3,2013-05-13 02:37:00,
2013-05-12 22:42:00,50.7,32.2,29.80,WNW,297,4.0,6.0,49,0.00,,,0.13,WeatherCatV1.02B3,2013-05-13 02:42:00,
2013-05-12 22:47:00,50.6,32.7,29.80,West,277,1.0,7.0,50,0.00,,,0.13,WeatherCatV1.02B3,2013-05-13 02:47:00,
2013-05-12 22:52:00,50.5,32.6,29.81,West,269,3.0,8.0,50,0.00,,,0.13,WeatherCatV1.02B3,2013-05-13 02:52:00,
2013-05-12 22:57:00,50.4,33.0,29.81,West,277,4.0,7.0,51,0.00,,,0.13,WeatherCatV1.02B3,2013-05-13 02:57:00,
2013-05-12 23:02:00,50.1,32.2,29.81,WNW,301,3.0,7.0,50,0.00,,,0.13,WeatherCatV1.02B3,2013-05-13 03:02:00,
2013-05-12 23:07:00,49.9,33.0,29.81,WNW,289,2.0,5.0,52,0.00,,,0.13,WeatherCatV1.02B3,2013-05-13 03:07:00,
2013-05-12 23:12:00,49.7,32.3,29.81,WSW,244,2.0,8.0,51,0.00,,,0.13,WeatherCatV1.02B3,2013-05-13 03:12:00,
2013-05-12 23:17:00,49.6,32.7,29.82,WNW,294,4.0,5.0,52,0.00,,,0.13,WeatherCatV1.02B3,2013-05-13 03:17:00,
2013-05-12 23:22:00,49.4,32.5,29.82,WSW,257,1.0,6.0,52,0.00,,,0.13,WeatherCatV1.02B3,2013-05-13 03:22:00,
2013-05-12 23:27:00,49.2,32.8,29.82,West,262,0.0,5.0,53,0.00,,,0.13,WeatherCatV1.02B3,2013-05-13 03:27:00,
2013-05-12 23:32:00,49.0,32.6,29.83,West,262,3.0,4.0,53,0.00,,,0.13,WeatherCatV1.02B3,2013-05-13 03:32:00,
2013-05-12 23:37:00,48.8,33.4,29.83,West,277,0.0,2.0,55,0.00,,,0.13,WeatherCatV1.02B3,2013-05-13 03:37:00,
2013-05-12 23:42:00,48.6,32.7,29.83,West,277,1.0,5.0,54,0.00,,,0.13,WeatherCatV1.02B3,2013-05-13 03:42:00,
2013-05-12 23:47:00,48.5,33.1,29.83,West,277,1.0,3.0,55,0.00,,,0.13,WeatherCatV1.02B3,2013-05-13 03:47:00,
2013-05-12 23:52:00,48.4,33.4,29.83,WNW,284,5.0,5.0,56,0.00,,,0.13,WeatherCatV1.02B3,2013-05-13 03:52:00,
2013-05-12 23:57:00,48.3,32.9,29.84,WNW,284,1.0,2.0,55,0.00,,,0.13,WeatherCatV1.02B3,2013-05-13 03:57:00,